sensor_id;sensor_type;location;lat;lon;timestamp;P1;durP1;ratioP1;P2;durP2;ratioP2
38629;SDS011;24384;51.988;4.644;2023-03-01T00:01:13;19.20;;;11.02;;
38629;SDS011;24384;51.988;4.644;2023-03-01T00:03:43;17.13;;;10.98;;
38629;SDS011;24384;51.988;4.644;2023-03-01T00:06:08;15.77;;;11.07;;
38629;SDS011;24384;51.988;4.644;2023-03-01T00:08:34;16.83;;;11.90;;
38629;SDS011;24384;51.988;4.644;2023-03-01T00:11:01;15.77;;;10.88;;
38629;SDS011;24384;51.988;4.644;2023-03-01T00:13:39;17.45;;;10.45;;
38629;SDS011;24384;51.988;4.644;2023-03-01T00:16:06;15.93;;;10.88;;
38629;SDS011;24384;51.988;4.644;2023-03-01T00:18:33;17.90;;;11.30;;
38629;SDS011;24384;51.988;4.644;2023-03-01T00:20:58;16.65;;;11.13;;
38629;SDS011;24384;51.988;4.644;2023-03-01T00:23:24;16.83;;;10.88;;
38629;SDS011;24384;51.988;4.644;2023-03-01T00:25:50;18.17;;;11.25;;
38629;SDS011;24384;51.988;4.644;2023-03-01T00:28:16;17.83;;;11.63;;
38629;SDS011;24384;51.988;4.644;2023-03-01T00:30:41;15.73;;;10.73;;
38629;SDS011;24384;51.988;4.644;2023-03-01T00:33:07;15.02;;;11.00;;
38629;SDS011;24384;51.988;4.644;2023-03-01T00:35:33;16.17;;;11.50;;
38629;SDS011;24384;51.988;4.644;2023-03-01T00:37:58;17.05;;;11.30;;
38629;SDS011;24384;51.988;4.644;2023-03-01T00:40:24;20.17;;;11.75;;
38629;SDS011;24384;51.988;4.644;2023-03-01T00:42:50;17.58;;;11.52;;
38629;SDS011;24384;51.988;4.644;2023-03-01T00:45:15;22.88;;;13.52;;
38629;SDS011;24384;51.988;4.644;2023-03-01T00:47:41;22.30;;;13.15;;
38629;SDS011;24384;51.988;4.644;2023-03-01T00:50:07;19.48;;;12.85;;
38629;SDS011;24384;51.988;4.644;2023-03-01T00:52:33;19.15;;;13.13;;
38629;SDS011;24384;51.988;4.644;2023-03-01T00:54:58;22.15;;;12.75;;
38629;SDS011;24384;51.988;4.644;2023-03-01T00:57:23;20.38;;;12.90;;
38629;SDS011;24384;51.988;4.644;2023-03-01T00:59:48;19.95;;;13.57;;
38629;SDS011;24384;51.988;4.644;2023-03-01T01:02:14;20.38;;;13.05;;
38629;SDS011;24384;51.988;4.644;2023-03-01T01:04:39;19.90;;;13.85;;
38629;SDS011;24384;51.988;4.644;2023-03-01T01:07:04;22.08;;;13.18;;
38629;SDS011;24384;51.988;4.644;2023-03-01T01:09:30;21.85;;;14.40;;
38629;SDS011;24384;51.988;4.644;2023-03-01T01:11:55;20.63;;;14.27;;
38629;SDS011;24384;51.988;4.644;2023-03-01T01:14:21;18.90;;;14.27;;
38629;SDS011;24384;51.988;4.644;2023-03-01T01:16:46;22.67;;;14.73;;
38629;SDS011;24384;51.988;4.644;2023-03-01T01:19:11;21.20;;;15.13;;
38629;SDS011;24384;51.988;4.644;2023-03-01T01:21:38;22.75;;;14.98;;
38629;SDS011;24384;51.988;4.644;2023-03-01T01:24:04;24.15;;;16.25;;
38629;SDS011;24384;51.988;4.644;2023-03-01T01:26:31;23.88;;;16.00;;
38629;SDS011;24384;51.988;4.644;2023-03-01T01:28:58;23.42;;;15.00;;
38629;SDS011;24384;51.988;4.644;2023-03-01T01:31:25;21.00;;;15.50;;
38629;SDS011;24384;51.988;4.644;2023-03-01T01:33:51;23.83;;;15.45;;
38629;SDS011;24384;51.988;4.644;2023-03-01T01:36:17;24.60;;;17.42;;
38629;SDS011;24384;51.988;4.644;2023-03-01T01:38:43;24.13;;;16.85;;
38629;SDS011;24384;51.988;4.644;2023-03-01T01:41:10;26.98;;;18.77;;
38629;SDS011;24384;51.988;4.644;2023-03-01T01:43:41;24.55;;;16.88;;
38629;SDS011;24384;51.988;4.644;2023-03-01T01:52:27;26.05;;;16.05;;
38629;SDS011;24384;51.988;4.644;2023-03-01T01:57:32;24.85;;;17.10;;
38629;SDS011;24384;51.988;4.644;2023-03-01T02:00:06;23.52;;;16.88;;
38629;SDS011;24384;51.988;4.644;2023-03-01T02:02:37;24.80;;;17.55;;
38629;SDS011;24384;51.988;4.644;2023-03-01T02:05:09;24.30;;;17.75;;
38629;SDS011;24384;51.988;4.644;2023-03-01T02:07:39;28.67;;;18.98;;
38629;SDS011;24384;51.988;4.644;2023-03-01T02:10:07;25.60;;;18.50;;
38629;SDS011;24384;51.988;4.644;2023-03-01T02:12:33;26.98;;;17.75;;
38629;SDS011;24384;51.988;4.644;2023-03-01T02:14:59;27.60;;;19.33;;
38629;SDS011;24384;51.988;4.644;2023-03-01T02:17:24;30.60;;;18.77;;
38629;SDS011;24384;51.988;4.644;2023-03-01T02:22:46;25.73;;;17.88;;
38629;SDS011;24384;51.988;4.644;2023-03-01T02:30:36;27.23;;;17.35;;
38629;SDS011;24384;51.988;4.644;2023-03-01T02:33:02;29.88;;;18.73;;
38629;SDS011;24384;51.988;4.644;2023-03-01T02:35:32;29.95;;;18.65;;
38629;SDS011;24384;51.988;4.644;2023-03-01T02:38:02;22.42;;;16.50;;
38629;SDS011;24384;51.988;4.644;2023-03-01T02:40:30;31.55;;;18.17;;
38629;SDS011;24384;51.988;4.644;2023-03-01T02:42:58;27.80;;;18.25;;
38629;SDS011;24384;51.988;4.644;2023-03-01T02:45:25;25.45;;;16.95;;
38629;SDS011;24384;51.988;4.644;2023-03-01T02:47:55;27.10;;;17.75;;
38629;SDS011;24384;51.988;4.644;2023-03-01T02:50:29;25.70;;;16.90;;
38629;SDS011;24384;51.988;4.644;2023-03-01T02:53:21;24.20;;;15.33;;
38629;SDS011;24384;51.988;4.644;2023-03-01T02:55:57;23.38;;;16.80;;
38629;SDS011;24384;51.988;4.644;2023-03-01T02:58:24;35.00;;;17.70;;
38629;SDS011;24384;51.988;4.644;2023-03-01T03:00:49;34.97;;;18.23;;
38629;SDS011;24384;51.988;4.644;2023-03-01T03:03:17;29.43;;;18.33;;
38629;SDS011;24384;51.988;4.644;2023-03-01T03:05:45;33.93;;;17.90;;
38629;SDS011;24384;51.988;4.644;2023-03-01T03:08:11;27.90;;;18.00;;
38629;SDS011;24384;51.988;4.644;2023-03-01T03:10:40;38.47;;;19.97;;
38629;SDS011;24384;51.988;4.644;2023-03-01T03:13:07;30.70;;;19.60;;
38629;SDS011;24384;51.988;4.644;2023-03-01T03:15:34;27.97;;;18.37;;
38629;SDS011;24384;51.988;4.644;2023-03-01T03:18:01;31.13;;;18.57;;
38629;SDS011;24384;51.988;4.644;2023-03-01T03:20:28;29.48;;;19.52;;
38629;SDS011;24384;51.988;4.644;2023-03-01T03:22:55;29.97;;;19.70;;
38629;SDS011;24384;51.988;4.644;2023-03-01T03:25:23;30.20;;;19.95;;
38629;SDS011;24384;51.988;4.644;2023-03-01T03:27:50;27.80;;;18.42;;
38629;SDS011;24384;51.988;4.644;2023-03-01T03:30:21;27.03;;;18.33;;
38629;SDS011;24384;51.988;4.644;2023-03-01T03:32:48;30.27;;;18.97;;
38629;SDS011;24384;51.988;4.644;2023-03-01T03:35:17;37.00;;;19.63;;
38629;SDS011;24384;51.988;4.644;2023-03-01T03:37:49;34.72;;;20.17;;
38629;SDS011;24384;51.988;4.644;2023-03-01T03:40:27;28.05;;;20.40;;
38629;SDS011;24384;51.988;4.644;2023-03-01T03:43:00;37.17;;;20.43;;
38629;SDS011;24384;51.988;4.644;2023-03-01T03:45:26;30.40;;;19.67;;
38629;SDS011;24384;51.988;4.644;2023-03-01T03:47:52;35.87;;;19.83;;
38629;SDS011;24384;51.988;4.644;2023-03-01T03:50:17;29.37;;;19.47;;
38629;SDS011;24384;51.988;4.644;2023-03-01T03:52:43;33.73;;;20.63;;
38629;SDS011;24384;51.988;4.644;2023-03-01T03:55:10;25.10;;;18.73;;
38629;SDS011;24384;51.988;4.644;2023-03-01T03:57:40;29.30;;;19.87;;
38629;SDS011;24384;51.988;4.644;2023-03-01T04:00:07;26.63;;;19.27;;
38629;SDS011;24384;51.988;4.644;2023-03-01T04:02:39;25.93;;;18.17;;
38629;SDS011;24384;51.988;4.644;2023-03-01T04:05:06;27.10;;;19.63;;
38629;SDS011;24384;51.988;4.644;2023-03-01T04:07:32;22.23;;;16.65;;
38629;SDS011;24384;51.988;4.644;2023-03-01T04:09:58;29.33;;;18.93;;
38629;SDS011;24384;51.988;4.644;2023-03-01T04:12:23;34.70;;;19.93;;
38629;SDS011;24384;51.988;4.644;2023-03-01T04:14:49;27.65;;;19.83;;
38629;SDS011;24384;51.988;4.644;2023-03-01T04:17:14;29.43;;;19.33;;
38629;SDS011;24384;51.988;4.644;2023-03-01T04:19:39;28.53;;;18.97;;
38629;SDS011;24384;51.988;4.644;2023-03-01T04:22:04;31.87;;;19.60;;
38629;SDS011;24384;51.988;4.644;2023-03-01T04:24:34;37.50;;;18.57;;
38629;SDS011;24384;51.988;4.644;2023-03-01T04:27:00;48.50;;;19.63;;
38629;SDS011;24384;51.988;4.644;2023-03-01T04:29:25;43.10;;;19.17;;
38629;SDS011;24384;51.988;4.644;2023-03-01T04:31:50;40.85;;;19.77;;
38629;SDS011;24384;51.988;4.644;2023-03-01T04:34:15;39.83;;;18.83;;
38629;SDS011;24384;51.988;4.644;2023-03-01T04:36:41;28.50;;;16.77;;
38629;SDS011;24384;51.988;4.644;2023-03-01T04:39:06;32.87;;;17.60;;
38629;SDS011;24384;51.988;4.644;2023-03-01T04:41:37;49.37;;;17.57;;
38629;SDS011;24384;51.988;4.644;2023-03-01T04:44:04;30.57;;;17.67;;
38629;SDS011;24384;51.988;4.644;2023-03-01T04:46:30;39.50;;;16.90;;
38629;SDS011;24384;51.988;4.644;2023-03-01T04:48:56;22.13;;;16.20;;
38629;SDS011;24384;51.988;4.644;2023-03-01T04:51:21;19.63;;;13.93;;
38629;SDS011;24384;51.988;4.644;2023-03-01T04:53:46;19.27;;;15.27;;
38629;SDS011;24384;51.988;4.644;2023-03-01T04:56:12;21.50;;;14.43;;
38629;SDS011;24384;51.988;4.644;2023-03-01T04:58:39;21.80;;;15.30;;
38629;SDS011;24384;51.988;4.644;2023-03-01T05:01:08;20.27;;;14.03;;
38629;SDS011;24384;51.988;4.644;2023-03-01T05:03:40;19.07;;;13.83;;
38629;SDS011;24384;51.988;4.644;2023-03-01T05:06:07;21.33;;;13.77;;
38629;SDS011;24384;51.988;4.644;2023-03-01T05:08:32;20.30;;;13.97;;
38629;SDS011;24384;51.988;4.644;2023-03-01T05:10:59;16.80;;;13.13;;
38629;SDS011;24384;51.988;4.644;2023-03-01T05:13:24;14.77;;;12.07;;
38629;SDS011;24384;51.988;4.644;2023-03-01T05:15:58;17.03;;;12.90;;
38629;SDS011;24384;51.988;4.644;2023-03-01T05:18:25;17.63;;;12.77;;
38629;SDS011;24384;51.988;4.644;2023-03-01T05:20:52;17.80;;;13.50;;
38629;SDS011;24384;51.988;4.644;2023-03-01T05:23:21;17.60;;;12.83;;
38629;SDS011;24384;51.988;4.644;2023-03-01T05:25:46;17.77;;;13.93;;
38629;SDS011;24384;51.988;4.644;2023-03-01T05:28:11;18.20;;;13.97;;
38629;SDS011;24384;51.988;4.644;2023-03-01T05:30:37;18.30;;;13.80;;
38629;SDS011;24384;51.988;4.644;2023-03-01T05:33:06;18.73;;;14.23;;
38629;SDS011;24384;51.988;4.644;2023-03-01T05:35:35;20.13;;;15.27;;
38629;SDS011;24384;51.988;4.644;2023-03-01T05:38:00;18.43;;;14.30;;
38629;SDS011;24384;51.988;4.644;2023-03-01T05:40:26;18.90;;;14.03;;
38629;SDS011;24384;51.988;4.644;2023-03-01T05:42:55;20.27;;;14.37;;
38629;SDS011;24384;51.988;4.644;2023-03-01T05:45:21;20.73;;;14.93;;
38629;SDS011;24384;51.988;4.644;2023-03-01T05:47:49;18.03;;;13.33;;
38629;SDS011;24384;51.988;4.644;2023-03-01T05:52:43;19.70;;;12.87;;
38629;SDS011;24384;51.988;4.644;2023-03-01T05:55:10;30.53;;;16.30;;
38629;SDS011;24384;51.988;4.644;2023-03-01T05:57:35;20.67;;;14.83;;
38629;SDS011;24384;51.988;4.644;2023-03-01T06:00:01;20.50;;;14.80;;
38629;SDS011;24384;51.988;4.644;2023-03-01T06:02:26;20.00;;;14.77;;
38629;SDS011;24384;51.988;4.644;2023-03-01T06:04:52;19.63;;;14.50;;
38629;SDS011;24384;51.988;4.644;2023-03-01T06:07:17;19.93;;;13.80;;
38629;SDS011;24384;51.988;4.644;2023-03-01T06:09:42;121.63;;;16.90;;
38629;SDS011;24384;51.988;4.644;2023-03-01T06:12:08;24.43;;;11.33;;
38629;SDS011;24384;51.988;4.644;2023-03-01T06:14:33;150.03;;;16.73;;
38629;SDS011;24384;51.988;4.644;2023-03-01T06:16:58;175.77;;;16.13;;
38629;SDS011;24384;51.988;4.644;2023-03-01T06:19:25;31.53;;;13.00;;
38629;SDS011;24384;51.988;4.644;2023-03-01T06:21:50;16.30;;;10.43;;
38629;SDS011;24384;51.988;4.644;2023-03-01T06:24:16;17.40;;;12.87;;
38629;SDS011;24384;51.988;4.644;2023-03-01T06:26:41;17.23;;;12.23;;
38629;SDS011;24384;51.988;4.644;2023-03-01T06:29:06;16.27;;;12.07;;
38629;SDS011;24384;51.988;4.644;2023-03-01T06:31:33;13.53;;;10.67;;
38629;SDS011;24384;51.988;4.644;2023-03-01T06:33:59;25.43;;;13.00;;
38629;SDS011;24384;51.988;4.644;2023-03-01T06:36:24;15.47;;;12.53;;
38629;SDS011;24384;51.988;4.644;2023-03-01T06:38:49;18.83;;;12.47;;
38629;SDS011;24384;51.988;4.644;2023-03-01T06:41:14;13.27;;;10.20;;
38629;SDS011;24384;51.988;4.644;2023-03-01T06:43:40;13.10;;;10.03;;
38629;SDS011;24384;51.988;4.644;2023-03-01T06:46:05;15.60;;;12.30;;
38629;SDS011;24384;51.988;4.644;2023-03-01T06:48:32;16.70;;;12.00;;
38629;SDS011;24384;51.988;4.644;2023-03-01T06:50:58;11.47;;;10.27;;
38629;SDS011;24384;51.988;4.644;2023-03-01T06:53:25;11.73;;;10.30;;
38629;SDS011;24384;51.988;4.644;2023-03-01T06:55:57;9.27;;;8.23;;
38629;SDS011;24384;51.988;4.644;2023-03-01T06:58:24;15.17;;;11.53;;
38629;SDS011;24384;51.988;4.644;2023-03-01T07:00:49;13.57;;;10.13;;
38629;SDS011;24384;51.988;4.644;2023-03-01T07:03:14;13.43;;;11.40;;
38629;SDS011;24384;51.988;4.644;2023-03-01T07:05:39;12.40;;;10.50;;
38629;SDS011;24384;51.988;4.644;2023-03-01T07:08:05;14.17;;;10.73;;
38629;SDS011;24384;51.988;4.644;2023-03-01T07:10:30;12.23;;;10.70;;
38629;SDS011;24384;51.988;4.644;2023-03-01T07:12:56;14.90;;;11.43;;
38629;SDS011;24384;51.988;4.644;2023-03-01T07:15:22;17.73;;;13.13;;
38629;SDS011;24384;51.988;4.644;2023-03-01T07:17:48;16.67;;;12.07;;
38629;SDS011;24384;51.988;4.644;2023-03-01T07:20:15;17.90;;;13.43;;
38629;SDS011;24384;51.988;4.644;2023-03-01T07:22:41;16.67;;;11.97;;
38629;SDS011;24384;51.988;4.644;2023-03-01T07:25:07;14.53;;;12.37;;
38629;SDS011;24384;51.988;4.644;2023-03-01T07:27:33;19.20;;;13.30;;
38629;SDS011;24384;51.988;4.644;2023-03-01T07:29:58;18.33;;;13.27;;
38629;SDS011;24384;51.988;4.644;2023-03-01T07:32:24;19.03;;;13.83;;
38629;SDS011;24384;51.988;4.644;2023-03-01T07:34:50;21.52;;;14.68;;
38629;SDS011;24384;51.988;4.644;2023-03-01T07:37:16;17.93;;;12.93;;
38629;SDS011;24384;51.988;4.644;2023-03-01T07:39:41;19.83;;;15.17;;
38629;SDS011;24384;51.988;4.644;2023-03-01T07:42:07;19.15;;;14.63;;
38629;SDS011;24384;51.988;4.644;2023-03-01T07:44:32;20.37;;;15.27;;
38629;SDS011;24384;51.988;4.644;2023-03-01T07:47:00;18.58;;;13.40;;
38629;SDS011;24384;51.988;4.644;2023-03-01T07:49:25;15.32;;;12.25;;
38629;SDS011;24384;51.988;4.644;2023-03-01T07:51:52;17.83;;;13.27;;
38629;SDS011;24384;51.988;4.644;2023-03-01T07:54:17;19.27;;;13.05;;
38629;SDS011;24384;51.988;4.644;2023-03-01T07:56:43;21.75;;;14.45;;
38629;SDS011;24384;51.988;4.644;2023-03-01T07:59:08;19.35;;;14.38;;
38629;SDS011;24384;51.988;4.644;2023-03-01T08:01:33;18.20;;;14.25;;
38629;SDS011;24384;51.988;4.644;2023-03-01T08:03:59;20.65;;;15.10;;
38629;SDS011;24384;51.988;4.644;2023-03-01T08:06:24;26.08;;;15.77;;
38629;SDS011;24384;51.988;4.644;2023-03-01T08:08:49;24.25;;;14.13;;
38629;SDS011;24384;51.988;4.644;2023-03-01T08:11:15;25.00;;;14.90;;
38629;SDS011;24384;51.988;4.644;2023-03-01T08:13:40;23.30;;;15.30;;
38629;SDS011;24384;51.988;4.644;2023-03-01T08:16:07;21.67;;;13.00;;
38629;SDS011;24384;51.988;4.644;2023-03-01T08:18:35;19.73;;;12.90;;
38629;SDS011;24384;51.988;4.644;2023-03-01T08:21:01;19.92;;;12.10;;
38629;SDS011;24384;51.988;4.644;2023-03-01T08:23:30;19.95;;;13.15;;
38629;SDS011;24384;51.988;4.644;2023-03-01T08:26:02;17.70;;;12.90;;
38629;SDS011;24384;51.988;4.644;2023-03-01T08:28:29;17.65;;;11.50;;
38629;SDS011;24384;51.988;4.644;2023-03-01T08:30:54;15.00;;;10.93;;
38629;SDS011;24384;51.988;4.644;2023-03-01T08:33:19;15.90;;;10.90;;
38629;SDS011;24384;51.988;4.644;2023-03-01T08:35:44;14.18;;;9.80;;
38629;SDS011;24384;51.988;4.644;2023-03-01T08:38:10;17.13;;;10.65;;
38629;SDS011;24384;51.988;4.644;2023-03-01T08:40:35;13.57;;;9.23;;
38629;SDS011;24384;51.988;4.644;2023-03-01T08:43:00;11.05;;;7.55;;
38629;SDS011;24384;51.988;4.644;2023-03-01T08:45:25;9.43;;;7.28;;
38629;SDS011;24384;51.988;4.644;2023-03-01T08:47:52;9.60;;;7.28;;
38629;SDS011;24384;51.988;4.644;2023-03-01T08:50:18;9.52;;;6.75;;
38629;SDS011;24384;51.988;4.644;2023-03-01T08:52:43;14.25;;;6.10;;
38629;SDS011;24384;51.988;4.644;2023-03-01T08:55:08;8.88;;;5.90;;
38629;SDS011;24384;51.988;4.644;2023-03-01T08:57:34;8.50;;;6.53;;
38629;SDS011;24384;51.988;4.644;2023-03-01T08:59:59;8.25;;;5.43;;
38629;SDS011;24384;51.988;4.644;2023-03-01T09:02:25;8.90;;;5.55;;
38629;SDS011;24384;51.988;4.644;2023-03-01T09:04:50;7.35;;;5.03;;
38629;SDS011;24384;51.988;4.644;2023-03-01T09:07:15;8.27;;;5.00;;
38629;SDS011;24384;51.988;4.644;2023-03-01T09:09:40;7.78;;;4.97;;
38629;SDS011;24384;51.988;4.644;2023-03-01T09:12:06;6.93;;;5.05;;
38629;SDS011;24384;51.988;4.644;2023-03-01T09:14:31;12.00;;;6.43;;
38629;SDS011;24384;51.988;4.644;2023-03-01T09:16:58;9.32;;;5.15;;
38629;SDS011;24384;51.988;4.644;2023-03-01T09:19:23;11.75;;;5.38;;
38629;SDS011;24384;51.988;4.644;2023-03-01T09:21:48;7.90;;;5.13;;
38629;SDS011;24384;51.988;4.644;2023-03-01T09:24:21;9.90;;;5.35;;
38629;SDS011;24384;51.988;4.644;2023-03-01T09:26:48;9.40;;;5.20;;
38629;SDS011;24384;51.988;4.644;2023-03-01T09:29:14;7.28;;;5.30;;
38629;SDS011;24384;51.988;4.644;2023-03-01T09:31:40;9.13;;;5.22;;
38629;SDS011;24384;51.988;4.644;2023-03-01T09:34:07;9.70;;;4.60;;
38629;SDS011;24384;51.988;4.644;2023-03-01T09:36:33;6.25;;;4.55;;
38629;SDS011;24384;51.988;4.644;2023-03-01T09:38:59;6.70;;;4.50;;
38629;SDS011;24384;51.988;4.644;2023-03-01T09:43:55;9.07;;;5.65;;
38629;SDS011;24384;51.988;4.644;2023-03-01T09:46:25;11.25;;;6.18;;
38629;SDS011;24384;51.988;4.644;2023-03-01T09:48:54;10.18;;;5.68;;
38629;SDS011;24384;51.988;4.644;2023-03-01T09:51:32;11.98;;;5.88;;
38629;SDS011;24384;51.988;4.644;2023-03-01T09:54:01;6.55;;;4.40;;
38629;SDS011;24384;51.988;4.644;2023-03-01T09:56:30;7.13;;;4.55;;
38629;SDS011;24384;51.988;4.644;2023-03-01T09:59:15;5.40;;;4.40;;
38629;SDS011;24384;51.988;4.644;2023-03-01T10:09:55;7.72;;;4.35;;
38629;SDS011;24384;51.988;4.644;2023-03-01T10:12:22;7.10;;;5.30;;
38629;SDS011;24384;51.988;4.644;2023-03-01T10:17:36;13.00;;;5.78;;
38629;SDS011;24384;51.988;4.644;2023-03-01T10:20:15;19.92;;;6.10;;
38629;SDS011;24384;51.988;4.644;2023-03-01T10:22:44;10.80;;;5.55;;
38629;SDS011;24384;51.988;4.644;2023-03-01T10:25:15;8.30;;;6.05;;
38629;SDS011;24384;51.988;4.644;2023-03-01T10:27:54;11.35;;;6.28;;
38629;SDS011;24384;51.988;4.644;2023-03-01T10:30:40;10.27;;;6.75;;
38629;SDS011;24384;51.988;4.644;2023-03-01T10:33:14;18.20;;;8.30;;
38629;SDS011;24384;51.988;4.644;2023-03-01T10:35:44;10.38;;;7.38;;
38629;SDS011;24384;51.988;4.644;2023-03-01T10:38:10;9.75;;;6.60;;
38629;SDS011;24384;51.988;4.644;2023-03-01T10:43:15;7.85;;;5.78;;
38629;SDS011;24384;51.988;4.644;2023-03-01T10:45:41;10.02;;;6.07;;
38629;SDS011;24384;51.988;4.644;2023-03-01T10:50:39;7.90;;;5.25;;
38629;SDS011;24384;51.988;4.644;2023-03-01T10:53:19;9.23;;;6.60;;
38629;SDS011;24384;51.988;4.644;2023-03-01T10:55:56;8.68;;;5.93;;
38629;SDS011;24384;51.988;4.644;2023-03-01T10:58:23;8.98;;;6.28;;
38629;SDS011;24384;51.988;4.644;2023-03-01T11:03:21;8.77;;;5.22;;
38629;SDS011;24384;51.988;4.644;2023-03-01T11:05:50;10.40;;;6.00;;
38629;SDS011;24384;51.988;4.644;2023-03-01T11:08:30;7.53;;;5.90;;
38629;SDS011;24384;51.988;4.644;2023-03-01T11:13:38;8.63;;;5.72;;
38629;SDS011;24384;51.988;4.644;2023-03-01T11:16:14;10.05;;;5.80;;
38629;SDS011;24384;51.988;4.644;2023-03-01T11:18:40;8.43;;;5.85;;
38629;SDS011;24384;51.988;4.644;2023-03-01T11:21:06;6.50;;;5.35;;
38629;SDS011;24384;51.988;4.644;2023-03-01T11:23:33;7.00;;;5.05;;
38629;SDS011;24384;51.988;4.644;2023-03-01T11:26:07;8.57;;;5.43;;
38629;SDS011;24384;51.988;4.644;2023-03-01T11:28:34;9.03;;;5.80;;
38629;SDS011;24384;51.988;4.644;2023-03-01T11:31:05;7.47;;;5.90;;
38629;SDS011;24384;51.988;4.644;2023-03-01T11:33:40;8.07;;;5.68;;
38629;SDS011;24384;51.988;4.644;2023-03-01T11:36:22;5.70;;;4.55;;
38629;SDS011;24384;51.988;4.644;2023-03-01T11:38:49;9.02;;;5.32;;
38629;SDS011;24384;51.988;4.644;2023-03-01T11:41:21;6.05;;;4.90;;
38629;SDS011;24384;51.988;4.644;2023-03-01T11:56:55;10.15;;;4.68;;
38629;SDS011;24384;51.988;4.644;2023-03-01T11:59:44;5.05;;;4.00;;
38629;SDS011;24384;51.988;4.644;2023-03-01T12:11:17;4.85;;;4.35;;
38629;SDS011;24384;51.988;4.644;2023-03-01T12:16:46;4.88;;;3.90;;
38629;SDS011;24384;51.988;4.644;2023-03-01T12:22:20;5.53;;;3.97;;
38629;SDS011;24384;51.988;4.644;2023-03-01T12:25:02;4.43;;;3.90;;
38629;SDS011;24384;51.988;4.644;2023-03-01T12:27:46;4.30;;;3.87;;
38629;SDS011;24384;51.988;4.644;2023-03-01T12:33:51;6.43;;;4.55;;
